createdAt,value
2017-11-03T00:00:14.390Z,18.60
2017-11-03T00:02:40.988Z,19.33
2017-11-03T00:05:07.614Z,17.43
2017-11-03T00:07:34.303Z,20.33
2017-11-03T00:10:00.893Z,19.30
2017-11-03T00:12:27.520Z,19.80
2017-11-03T00:14:54.216Z,18.50
2017-11-03T00:17:20.819Z,18.10
2017-11-03T00:19:47.416Z,18.93
2017-11-03T00:22:14.040Z,19.60
2017-11-03T00:24:40.668Z,18.63
2017-11-03T00:27:07.280Z,18.83
2017-11-03T00:29:33.876Z,17.63
2017-11-03T00:32:00.510Z,18.53
2017-11-03T00:34:27.116Z,18.60
2017-11-03T00:36:53.751Z,18.97
2017-11-03T00:39:20.348Z,18.63
2017-11-03T00:41:46.961Z,19.80
2017-11-03T00:44:13.593Z,20.30
2017-11-03T00:46:40.212Z,19.87
2017-11-03T00:49:06.857Z,20.33
2017-11-03T00:51:33.501Z,18.50
2017-11-03T00:54:00.097Z,19.03
2017-11-03T00:56:26.758Z,20.73
2017-11-03T00:58:53.495Z,20.93
2017-11-03T01:01:20.105Z,19.47
2017-11-03T01:03:46.709Z,19.40
2017-11-03T01:06:13.350Z,19.20
2017-11-03T01:08:39.957Z,20.40
2017-11-03T01:11:06.556Z,19.60
2017-11-03T01:13:33.174Z,20.70
2017-11-03T01:15:59.773Z,20.87
2017-11-03T01:18:26.404Z,20.43
2017-11-03T01:20:53.004Z,19.67
2017-11-03T01:23:19.617Z,20.00
2017-11-03T01:25:46.245Z,19.90
2017-11-03T01:28:12.845Z,19.90
2017-11-03T01:30:39.452Z,19.47
2017-11-03T01:33:06.078Z,20.10
2017-11-03T01:35:32.721Z,19.43
2017-11-03T01:37:59.329Z,19.23
2017-11-03T01:40:25.949Z,20.30
2017-11-03T01:42:52.556Z,20.13
2017-11-03T01:45:19.204Z,21.20
2017-11-03T01:47:45.828Z,19.93
2017-11-03T01:50:12.456Z,21.10
2017-11-03T01:52:39.057Z,18.60
2017-11-03T01:55:05.692Z,20.60
2017-11-03T01:57:32.296Z,19.50
2017-11-03T01:59:58.901Z,19.40
2017-11-03T02:02:25.529Z,20.20
2017-11-03T02:04:52.205Z,18.67
2017-11-03T02:07:18.842Z,19.80
2017-11-03T02:09:45.453Z,20.30
2017-11-03T02:12:12.068Z,21.73
2017-11-03T02:14:38.699Z,20.80
2017-11-03T02:17:05.333Z,19.10
2017-11-03T02:19:31.940Z,20.73
2017-11-03T02:21:58.549Z,20.30
2017-11-03T02:24:25.168Z,19.70
2017-11-03T02:26:51.764Z,19.20
2017-11-03T02:29:18.393Z,20.60
2017-11-03T02:31:44.995Z,19.53
2017-11-03T02:34:11.607Z,20.13
2017-11-03T02:36:38.221Z,19.70
2017-11-03T02:39:04.823Z,19.67
2017-11-03T02:41:31.452Z,19.73
2017-11-03T02:43:58.057Z,20.80
2017-11-03T02:46:24.664Z,20.00
2017-11-03T02:48:51.278Z,20.40
2017-11-03T02:51:17.883Z,19.80
2017-11-03T02:53:44.499Z,20.30
2017-11-03T02:56:11.134Z,20.17
2017-11-03T02:58:37.745Z,19.90
2017-11-03T03:01:04.341Z,19.47
2017-11-03T03:03:30.965Z,20.67
2017-11-03T03:05:57.565Z,21.37
2017-11-03T03:08:24.181Z,20.33
2017-11-03T03:10:50.915Z,23.17
2017-11-03T03:13:17.525Z,24.00
2017-11-03T03:15:44.121Z,21.37
2017-11-03T03:18:10.764Z,22.20
2017-11-03T03:20:37.467Z,22.40
2017-11-03T03:23:04.048Z,20.97
2017-11-03T03:25:30.681Z,22.07
2017-11-03T03:27:57.282Z,22.20
2017-11-03T03:30:23.919Z,21.50
2017-11-03T03:32:50.542Z,22.23
2017-11-03T03:35:17.146Z,22.90
2017-11-03T03:37:43.765Z,21.90
2017-11-03T03:40:10.469Z,20.90
2017-11-03T03:42:37.083Z,24.40
2017-11-03T03:45:03.709Z,21.90
2017-11-03T03:47:30.305Z,21.20
2017-11-03T03:49:56.928Z,21.53
2017-11-03T03:52:23.549Z,23.80
2017-11-03T03:54:50.173Z,22.80
2017-11-03T03:57:16.769Z,21.80
2017-11-03T03:59:43.473Z,21.97
2017-11-03T04:02:10.084Z,21.83
2017-11-03T04:04:36.685Z,23.30
2017-11-03T04:07:03.385Z,21.80
2017-11-03T04:09:29.981Z,20.97
2017-11-03T04:11:56.620Z,21.93
2017-11-03T04:14:23.244Z,22.83
2017-11-03T04:16:49.848Z,21.23
2017-11-03T04:19:16.444Z,22.50
2017-11-03T04:21:43.087Z,23.50
2017-11-03T04:24:09.681Z,23.67
2017-11-03T04:26:36.292Z,20.23
2017-11-03T04:29:02.917Z,22.47
2017-11-03T04:31:29.546Z,21.80
2017-11-03T04:33:56.171Z,21.57
2017-11-03T04:36:22.785Z,20.77
2017-11-03T04:38:49.470Z,22.87
2017-11-03T04:41:16.081Z,22.73
2017-11-03T04:43:42.700Z,21.23
2017-11-03T04:46:09.301Z,20.80
2017-11-03T04:48:35.903Z,23.80
2017-11-03T04:51:02.520Z,23.50
2017-11-03T04:53:29.134Z,23.70
2017-11-03T04:55:55.835Z,22.33
2017-11-03T04:58:22.445Z,22.90
2017-11-03T05:00:49.044Z,20.90
2017-11-03T05:03:15.673Z,22.27
2017-11-03T05:05:42.279Z,22.20
2017-11-03T05:08:08.893Z,23.30
2017-11-03T05:10:35.493Z,24.53
2017-11-03T05:13:02.112Z,24.10
2017-11-03T05:15:28.737Z,22.67
2017-11-03T05:17:55.370Z,23.53
2017-11-03T05:20:21.973Z,23.20
2017-11-03T05:22:48.572Z,24.20
2017-11-03T05:25:15.200Z,23.40
2017-11-03T05:27:41.821Z,23.80
2017-11-03T05:30:08.424Z,23.23
2017-11-03T05:32:35.048Z,25.30
2017-11-03T05:35:01.659Z,23.53
2017-11-03T05:37:28.301Z,23.17
2017-11-03T05:39:54.905Z,23.13
2017-11-03T05:42:21.509Z,22.30
2017-11-03T05:44:48.135Z,23.23
2017-11-03T05:47:14.753Z,22.93
2017-11-03T05:49:41.381Z,22.70
2017-11-03T05:52:07.990Z,24.03
2017-11-03T05:54:34.580Z,25.60
2017-11-03T05:57:01.200Z,23.03
2017-11-03T05:59:27.907Z,25.67
2017-11-03T06:01:54.509Z,24.47
2017-11-03T06:04:21.134Z,22.73
2017-11-03T06:06:47.822Z,23.60
2017-11-03T06:09:14.425Z,24.87
2017-11-03T06:11:41.044Z,24.57
2017-11-03T06:14:07.648Z,23.63
2017-11-03T06:16:34.267Z,23.30
2017-11-03T06:19:00.887Z,24.23
2017-11-03T06:21:27.518Z,24.23
2017-11-03T06:23:54.110Z,22.03
2017-11-03T06:26:20.721Z,21.57
2017-11-03T06:28:47.356Z,23.77
2017-11-03T06:31:13.945Z,24.67
2017-11-03T06:33:40.549Z,24.33
2017-11-03T06:36:07.167Z,24.97
2017-11-03T06:38:33.789Z,23.93
2017-11-03T06:41:00.417Z,24.67
2017-11-03T06:43:27.240Z,23.57
2017-11-03T06:45:53.864Z,26.20
2017-11-03T06:48:20.493Z,25.80
2017-11-03T06:50:47.122Z,25.50
2017-11-03T06:53:13.757Z,26.10
2017-11-03T06:55:40.380Z,24.13
2017-11-03T06:58:06.969Z,23.10
2017-11-03T07:00:33.589Z,24.03
2017-11-03T07:03:00.216Z,25.40
2017-11-03T07:05:26.832Z,23.07
2017-11-03T07:07:53.445Z,26.53
2017-11-03T07:10:20.253Z,22.70
2017-11-03T07:12:47.116Z,24.03
2017-11-03T07:15:13.918Z,25.60
2017-11-03T07:17:40.612Z,24.67
2017-11-03T07:20:07.396Z,24.70
2017-11-03T07:22:34.067Z,24.13
2017-11-03T07:25:00.957Z,23.33
2017-11-03T07:27:27.792Z,23.93
2017-11-03T07:29:54.743Z,23.70
2017-11-03T07:32:21.778Z,23.93
2017-11-03T07:34:48.450Z,25.03
2017-11-03T07:37:15.176Z,24.17
2017-11-03T07:39:41.845Z,24.70
2017-11-03T07:42:08.788Z,23.30
2017-11-03T07:44:35.486Z,23.47
2017-11-03T07:47:02.143Z,25.60
2017-11-03T07:49:28.767Z,24.27
2017-11-03T07:51:55.743Z,25.10
2017-11-03T07:54:22.654Z,22.87
2017-11-03T07:56:49.498Z,24.37
2017-11-03T07:59:16.229Z,23.67
2017-11-03T08:01:43.065Z,23.30
2017-11-03T08:04:09.838Z,24.37
2017-11-03T08:06:37.197Z,24.57
2017-11-03T08:09:04.439Z,23.80
2017-11-03T08:11:31.786Z,25.90
2017-11-03T08:13:58.397Z,23.93
2017-11-03T08:16:25.049Z,23.17
2017-11-03T08:18:51.668Z,24.20
2017-11-03T08:21:18.306Z,24.50
2017-11-03T08:23:44.900Z,22.87
2017-11-03T08:26:11.536Z,22.87
2017-11-03T08:28:38.157Z,23.10
2017-11-03T08:31:04.756Z,24.57
2017-11-03T08:33:31.386Z,24.80
2017-11-03T08:35:58.082Z,24.83
2017-11-03T08:38:25.006Z,24.47
2017-11-03T08:40:51.625Z,24.43
2017-11-03T08:43:18.530Z,22.50
2017-11-03T08:45:45.669Z,23.77
2017-11-03T08:48:12.472Z,23.50
2017-11-03T08:50:39.213Z,23.33
2017-11-03T08:53:06.342Z,23.60
2017-11-03T08:55:33.048Z,24.63
2017-11-03T08:57:59.834Z,24.17
2017-11-03T09:00:27.360Z,22.30
2017-11-03T09:02:54.607Z,21.97
2017-11-03T09:05:21.459Z,22.00
2017-11-03T09:07:49.309Z,23.27
2017-11-03T09:10:16.011Z,23.53
2017-11-03T09:12:43.287Z,22.30
2017-11-03T09:15:09.975Z,21.27
2017-11-03T09:17:36.923Z,21.93
2017-11-03T09:20:03.737Z,21.70
2017-11-03T09:22:30.386Z,20.53
2017-11-03T09:24:57.012Z,20.10
2017-11-03T09:27:24.420Z,20.57
2017-11-03T09:29:51.146Z,22.67
2017-11-03T09:32:18.382Z,21.37
2017-11-03T09:34:45.365Z,22.20
2017-11-03T09:37:12.198Z,23.10
2017-11-03T09:39:39.001Z,21.00
2017-11-03T09:42:05.740Z,20.90
2017-11-03T09:44:32.735Z,21.70
2017-11-03T09:46:59.746Z,21.50
2017-11-03T09:49:26.802Z,21.60
2017-11-03T09:51:53.638Z,22.37
2017-11-03T09:54:21.309Z,21.27
2017-11-03T09:56:48.178Z,22.33
2017-11-03T09:59:14.770Z,20.77
2017-11-03T10:01:41.764Z,22.30
2017-11-03T10:04:10.248Z,22.80
2017-11-03T10:06:37.171Z,22.30
2017-11-03T10:09:04.831Z,21.60
2017-11-03T10:11:31.583Z,22.10
2017-11-03T10:13:58.270Z,23.00
2017-11-03T10:16:25.045Z,21.90
2017-11-03T10:18:51.710Z,21.20
2017-11-03T10:21:18.390Z,22.10
2017-11-03T10:23:45.009Z,21.10
2017-11-03T10:26:11.646Z,22.00
2017-11-03T10:28:38.232Z,22.00
2017-11-03T10:31:04.974Z,19.00
2017-11-03T10:33:31.580Z,20.77
2017-11-03T10:35:58.185Z,20.23
2017-11-03T10:38:24.832Z,20.13
2017-11-03T10:40:51.495Z,19.77
2017-11-03T10:43:18.097Z,19.40
2017-11-03T10:45:44.701Z,18.93
2017-11-03T10:48:11.341Z,17.53
2017-11-03T10:50:37.942Z,19.63
2017-11-03T10:53:04.681Z,19.70
2017-11-03T10:55:31.276Z,18.43
2017-11-03T10:57:57.888Z,19.90
2017-11-03T11:00:24.527Z,19.17
2017-11-03T11:02:51.133Z,20.47
2017-11-03T11:05:17.765Z,19.67
2017-11-03T11:07:44.441Z,19.80
2017-11-03T11:10:11.029Z,20.30
2017-11-03T11:12:37.683Z,18.10
2017-11-03T11:15:04.397Z,18.20
2017-11-03T11:17:31.169Z,17.90
2017-11-03T11:19:58.080Z,17.90
2017-11-03T11:22:25.453Z,19.03
2017-11-03T11:24:52.057Z,17.77
2017-11-03T11:27:18.679Z,17.30
2017-11-03T11:29:45.393Z,18.37
2017-11-03T11:32:12.054Z,18.77
2017-11-03T11:34:38.790Z,18.30
2017-11-03T11:37:05.585Z,16.90
2017-11-03T11:39:32.246Z,18.20
2017-11-03T11:41:58.859Z,17.90
2017-11-03T11:44:25.490Z,17.93
2017-11-03T11:46:52.150Z,15.80
2017-11-03T11:49:18.766Z,16.07
2017-11-03T11:51:45.403Z,17.23
2017-11-03T11:54:12.010Z,18.27
2017-11-03T11:56:38.609Z,15.67
2017-11-03T11:59:05.232Z,16.37
2017-11-03T12:01:31.909Z,15.73
2017-11-03T12:03:58.589Z,15.10
2017-11-03T12:06:25.218Z,15.70
2017-11-03T12:08:51.992Z,16.10
2017-11-03T12:11:18.617Z,16.37
2017-11-03T12:13:45.218Z,17.63
2017-11-03T12:16:11.874Z,15.83
2017-11-03T12:18:38.550Z,16.90
2017-11-03T12:21:07.820Z,15.60
2017-11-03T12:23:37.764Z,15.87
2017-11-03T12:26:05.905Z,15.70
2017-11-03T12:28:32.993Z,15.50
2017-11-03T12:30:59.812Z,16.23
2017-11-03T12:33:27.061Z,16.97
2017-11-03T12:35:54.771Z,15.73
2017-11-03T12:38:21.429Z,16.30
2017-11-03T12:40:49.503Z,16.47
2017-11-03T12:43:16.467Z,15.53
2017-11-03T12:45:43.222Z,18.10
2017-11-03T12:51:00.139Z,17.17
2017-11-03T12:53:39.177Z,16.07
2017-11-03T12:56:07.485Z,16.30
2017-11-03T12:58:34.093Z,16.90
2017-11-03T13:01:00.737Z,17.47
2017-11-03T13:03:43.238Z,16.83
2017-11-03T13:06:11.773Z,17.30
2017-11-03T13:08:39.965Z,18.03
2017-11-03T13:11:19.327Z,17.33
2017-11-03T13:13:45.979Z,16.93
2017-11-03T13:16:12.666Z,16.83
2017-11-03T13:18:39.756Z,16.43
2017-11-03T13:21:06.687Z,16.40
2017-11-03T13:23:34.352Z,16.97
2017-11-03T13:26:01.238Z,16.93
2017-11-03T13:28:28.127Z,16.57
2017-11-03T13:30:55.099Z,15.80
2017-11-03T13:33:21.765Z,16.43
2017-11-03T13:36:00.559Z,16.37
2017-11-03T13:41:01.140Z,15.80
2017-11-03T13:51:40.875Z,15.90
2017-11-03T13:54:07.499Z,16.37
2017-11-03T13:56:34.125Z,15.50
2017-11-03T13:59:01.627Z,15.20
2017-11-03T14:01:28.366Z,14.37
2017-11-03T14:03:55.220Z,15.57
2017-11-03T14:06:22.182Z,16.80
2017-11-03T14:08:48.862Z,16.33
2017-11-03T14:11:15.754Z,16.93
2017-11-03T14:13:42.809Z,16.20
2017-11-03T14:16:09.758Z,14.33
2017-11-03T14:18:37.504Z,13.53
2017-11-03T14:21:04.243Z,15.33
2017-11-03T14:23:31.707Z,14.60
2017-11-03T14:25:58.885Z,16.10
2017-11-03T14:28:26.239Z,15.37
2017-11-03T14:30:53.285Z,14.90
2017-11-03T14:33:22.491Z,14.90
2017-11-03T14:35:54.969Z,17.00
2017-11-03T14:38:23.229Z,16.30
2017-11-03T14:40:51.962Z,15.50
2017-11-03T14:43:20.306Z,16.10
2017-11-03T14:45:48.629Z,16.60
2017-11-03T14:48:16.067Z,17.07
2017-11-03T14:50:44.020Z,17.17
2017-11-03T14:53:11.614Z,17.40
2017-11-03T14:55:39.097Z,16.90
2017-11-03T14:58:05.721Z,16.90
2017-11-03T15:00:32.770Z,17.23
2017-11-03T15:03:00.727Z,16.00
2017-11-03T15:05:27.357Z,17.30
2017-11-03T15:07:54.020Z,15.50
2017-11-03T15:10:20.658Z,16.77
2017-11-03T15:12:47.414Z,16.30
2017-11-03T15:15:14.006Z,16.30
2017-11-03T15:17:40.638Z,17.47
2017-11-03T15:20:07.278Z,16.80
2017-11-03T15:22:33.918Z,17.10
2017-11-03T15:25:00.520Z,16.97
2017-11-03T15:27:27.141Z,18.33
2017-11-03T15:29:53.748Z,17.77
2017-11-03T15:32:20.459Z,18.40
2017-11-03T15:34:47.105Z,18.57
2017-11-03T15:37:13.710Z,17.90
2017-11-03T15:39:40.349Z,17.60
2017-11-03T15:42:06.977Z,18.50
2017-11-03T15:44:33.594Z,17.43
2017-11-03T15:47:00.226Z,17.27
2017-11-03T15:49:26.861Z,18.03
2017-11-03T15:51:53.494Z,18.07
2017-11-03T15:54:20.094Z,18.93
2017-11-03T15:56:46.703Z,18.47
2017-11-03T15:59:13.368Z,18.30
2017-11-03T16:01:39.994Z,19.50
2017-11-03T16:04:06.610Z,18.17
2017-11-03T16:06:33.222Z,18.17
2017-11-03T16:08:59.848Z,19.27
2017-11-03T16:11:26.482Z,19.70
2017-11-03T16:13:53.126Z,18.90
2017-11-03T16:16:19.769Z,19.37
2017-11-03T16:18:46.392Z,19.10
2017-11-03T16:21:13.003Z,18.50
2017-11-03T16:23:39.657Z,19.03
2017-11-03T16:26:06.276Z,22.10
2017-11-03T16:28:32.909Z,20.10
2017-11-03T16:30:59.534Z,19.07
2017-11-03T16:33:26.193Z,20.33
2017-11-03T16:35:52.792Z,20.00
2017-11-03T16:38:19.405Z,21.77
2017-11-03T16:40:46.045Z,22.67
2017-11-03T16:43:12.701Z,22.90
2017-11-03T16:45:39.317Z,21.60
2017-11-03T16:48:05.921Z,23.53
2017-11-03T16:50:32.553Z,21.90
2017-11-03T16:52:59.145Z,24.67
2017-11-03T16:55:25.773Z,23.50
2017-11-03T16:57:52.369Z,22.77
2017-11-03T17:00:19.123Z,21.70
2017-11-03T17:02:45.741Z,23.97
2017-11-03T17:05:12.346Z,23.50
2017-11-03T17:07:39.034Z,23.43
2017-11-03T17:10:05.622Z,22.77
2017-11-03T17:12:33.041Z,23.63
2017-11-03T17:14:59.650Z,23.33
2017-11-03T17:17:26.278Z,23.90
2017-11-03T17:19:52.893Z,24.93
2017-11-03T17:22:19.520Z,25.40
2017-11-03T17:24:46.320Z,24.73
2017-11-03T17:27:12.970Z,25.43
2017-11-03T17:29:39.600Z,25.43
2017-11-03T17:32:06.221Z,25.17
2017-11-03T17:34:32.854Z,25.90
2017-11-03T17:36:59.490Z,27.67
2017-11-03T17:39:26.121Z,25.43
2017-11-03T17:41:52.745Z,27.50
2017-11-03T17:44:19.357Z,26.30
2017-11-03T17:46:45.994Z,26.43
2017-11-03T17:49:12.607Z,25.87
2017-11-03T17:51:39.265Z,26.50
2017-11-03T17:54:05.878Z,26.00
2017-11-03T17:56:32.485Z,26.23
2017-11-03T17:58:59.117Z,27.53
2017-11-03T18:01:26.343Z,27.43
2017-11-03T18:03:52.953Z,26.43
2017-11-03T18:06:19.582Z,27.97
2017-11-03T18:08:46.186Z,26.70
2017-11-03T18:11:12.822Z,25.30
2017-11-03T18:13:39.542Z,27.20
2017-11-03T18:16:06.145Z,26.40
2017-11-03T18:18:32.929Z,27.13
2017-11-03T18:20:59.537Z,25.70
2017-11-03T18:23:26.157Z,27.90
2017-11-03T18:25:52.809Z,28.10
2017-11-03T18:28:20.207Z,27.03
2017-11-03T18:30:47.080Z,29.47
2017-11-03T18:33:13.766Z,29.37
2017-11-03T18:35:40.413Z,26.13
2017-11-03T18:38:07.125Z,27.87
2017-11-03T18:40:33.932Z,26.77
2017-11-03T18:43:00.541Z,27.67
2017-11-03T18:45:27.208Z,27.03
2017-11-03T18:47:53.805Z,30.10
2017-11-03T18:50:20.434Z,31.53
2017-11-03T18:52:47.062Z,29.93
2017-11-03T18:55:13.685Z,28.50
2017-11-03T18:57:40.316Z,29.13
2017-11-03T19:00:07.072Z,29.10
2017-11-03T19:02:33.770Z,28.47
2017-11-03T19:05:00.403Z,28.93
2017-11-03T19:07:27.045Z,29.67
2017-11-03T19:09:53.693Z,27.30
2017-11-03T19:12:20.339Z,28.50
2017-11-03T19:14:46.976Z,29.13
2017-11-03T19:17:13.591Z,28.07
2017-11-03T19:19:40.220Z,29.63
2017-11-03T19:22:06.842Z,30.37
2017-11-03T19:24:33.525Z,31.10
2017-11-03T19:27:00.138Z,28.97
2017-11-03T19:29:26.745Z,30.57
2017-11-03T19:31:53.377Z,30.47
2017-11-03T19:34:20.174Z,31.47
2017-11-03T19:36:47.009Z,31.87
2017-11-03T19:39:13.763Z,31.60
2017-11-03T19:41:40.483Z,31.60
2017-11-03T19:44:07.086Z,31.70
2017-11-03T19:46:33.718Z,32.77
2017-11-03T19:49:00.359Z,31.57
2017-11-03T19:51:26.990Z,32.53
2017-11-03T19:53:53.634Z,30.17
2017-11-03T19:56:20.335Z,28.63
2017-11-03T19:58:46.962Z,27.77
2017-11-03T20:01:13.594Z,31.07
2017-11-03T20:03:40.906Z,31.17
2017-11-03T20:06:07.542Z,30.97
2017-11-03T20:08:34.172Z,32.03
2017-11-03T20:11:01.245Z,30.17
2017-11-03T20:13:27.882Z,30.80
2017-11-03T20:15:54.497Z,29.77
2017-11-03T20:18:21.111Z,30.50
2017-11-03T20:20:48.575Z,30.97
2017-11-03T20:23:15.202Z,30.70
2017-11-03T20:25:41.838Z,30.80
2017-11-03T20:28:08.471Z,31.00
2017-11-03T20:30:35.089Z,31.40
2017-11-03T20:33:01.730Z,30.33
2017-11-03T20:35:28.354Z,30.10
2017-11-03T20:37:54.963Z,31.70
2017-11-03T20:40:21.593Z,32.07
2017-11-03T20:42:48.223Z,30.97
2017-11-03T20:45:14.983Z,32.77
2017-11-03T20:47:41.655Z,30.43
2017-11-03T20:50:08.269Z,31.90
2017-11-03T20:52:34.973Z,32.27
2017-11-03T20:55:01.586Z,30.10
2017-11-03T20:57:28.341Z,30.83
2017-11-03T20:59:54.975Z,29.77
2017-11-03T21:02:21.618Z,31.97
2017-11-03T21:04:48.249Z,30.57
2017-11-03T21:07:17.834Z,31.00
2017-11-03T21:09:44.645Z,30.60
2017-11-03T21:12:12.071Z,31.10
2017-11-03T21:14:38.740Z,30.27
2017-11-03T21:17:05.794Z,32.07
2017-11-03T21:19:33.326Z,30.77
2017-11-03T21:22:00.145Z,32.30
2017-11-03T21:24:26.782Z,30.33
2017-11-03T21:26:53.389Z,31.60
2017-11-03T21:29:20.233Z,31.67
2017-11-03T21:31:46.895Z,32.50
2017-11-03T21:34:13.733Z,32.87
2017-11-03T21:36:40.362Z,34.27
2017-11-03T21:39:07.275Z,32.20
2017-11-03T21:41:33.960Z,32.10
2017-11-03T21:44:00.777Z,35.00
2017-11-03T21:46:27.795Z,33.90
2017-11-03T21:48:54.505Z,36.20
2017-11-03T21:51:21.117Z,33.10
2017-11-03T21:53:48.118Z,35.80
2017-11-03T21:56:14.801Z,32.97
2017-11-03T21:58:41.449Z,34.47
2017-11-03T22:01:08.077Z,33.80
2017-11-03T22:03:34.718Z,33.23
2017-11-03T22:06:01.331Z,32.80
2017-11-03T22:08:27.969Z,31.97
2017-11-03T22:10:54.643Z,32.57
2017-11-03T22:13:21.252Z,31.70
2017-11-03T22:15:47.918Z,32.80
2017-11-03T22:18:14.560Z,31.87
2017-11-03T22:20:41.178Z,33.07
2017-11-03T22:23:07.830Z,33.47
2017-11-03T22:25:34.481Z,31.87
2017-11-03T22:28:01.110Z,31.30
2017-11-03T22:30:27.932Z,29.80
2017-11-03T22:32:54.554Z,30.30
2017-11-03T22:35:21.262Z,31.47
2017-11-03T22:37:48.737Z,31.40
2017-11-03T22:40:15.371Z,30.93
2017-11-03T22:42:41.986Z,32.07
2017-11-03T22:45:08.590Z,29.23
2017-11-03T22:47:35.254Z,30.03
2017-11-03T22:50:01.862Z,31.37
2017-11-03T22:52:28.482Z,30.00
2017-11-03T22:54:55.105Z,29.30
2017-11-03T22:57:21.941Z,29.80
2017-11-03T22:59:48.547Z,28.93
2017-11-03T23:02:15.305Z,28.97
2017-11-03T23:04:42.087Z,29.10
2017-11-03T23:07:08.727Z,29.07
2017-11-03T23:09:35.412Z,31.03
2017-11-03T23:12:02.020Z,29.23
2017-11-03T23:14:29.010Z,29.17
2017-11-03T23:16:55.613Z,28.97
2017-11-03T23:19:23.298Z,28.60
2017-11-03T23:21:55.721Z,28.40
2017-11-03T23:24:22.322Z,28.53
2017-11-03T23:26:48.954Z,28.33
2017-11-03T23:29:15.595Z,29.37
2017-11-03T23:31:42.556Z,27.97
2017-11-03T23:34:09.174Z,28.40
2017-11-03T23:36:36.530Z,29.80
2017-11-03T23:39:03.227Z,28.33
2017-11-03T23:41:29.966Z,29.03
2017-11-03T23:43:56.804Z,28.10
2017-11-03T23:46:23.425Z,27.13
2017-11-03T23:48:50.088Z,26.37
2017-11-03T23:51:16.809Z,26.63
2017-11-03T23:53:43.603Z,28.00
2017-11-03T23:56:10.245Z,25.90
2017-11-03T23:58:37.132Z,25.03
